Time;durP1;ratioP1;P1;durP2;ratioP2;P2;SDS_P1;SDS_P2;PMS_P1;PMS_P2;Temp;Humidity;BMP_temperature;BMP_pressure;BME280_temperature;BME280_humidity;BME280_pressure;Samples;Min_cycle;Max_cycle;Signal;HPM_P1;HPM_P2
2021/12/22 00:02:03;;;;;;;28.92;18.45;;;1.80;99.90;;;;;;4981767;28;20085;-52
2021/12/22 00:04:31;;;;;;;39.80;24.02;;;1.80;99.90;;;;;;4987259;28;20415;-51
2021/12/22 00:06:57;;;;;;;47.33;28.83;;;1.80;99.90;;;;;;4972659;28;20046;-50
2021/12/22 00:09:23;;;;;;;43.75;24.17;;;1.80;99.90;;;;;;5013308;28;20099;-53
2021/12/22 00:11:49;;;;;;;35.63;21.08;;;1.90;99.90;;;;;;5025921;28;20041;-53
2021/12/22 00:14:16;;;;;;;32.65;21.00;;;1.90;99.90;;;;;;5026054;28;20050;-54
2021/12/22 00:16:42;;;;;;;40.78;24.10;;;2.10;99.90;;;;;;5038554;28;20029;-52
2021/12/22 00:19:07;;;;;;;53.40;30.90;;;2.10;99.90;;;;;;5025832;28;20033;-54
2021/12/22 00:21:33;;;;;;;39.85;26.20;;;1.90;99.90;;;;;;5045245;28;20111;-55
2021/12/22 00:23:59;;;;;;;40.72;24.02;;;2.00;99.90;;;;;;5042350;28;20021;-51
2021/12/22 00:26:25;;;;;;;40.28;24.25;;;1.90;99.90;;;;;;5046740;28;20056;-54
2021/12/22 00:28:51;;;;;;;47.00;28.35;;;1.90;99.90;;;;;;5048352;28;20033;-53
2021/12/22 00:31:20;;;;;;;39.58;22.55;;;2.10;99.90;;;;;;5028118;28;20120;-52
2021/12/22 00:33:49;;;;;;;32.92;21.02;;;2.30;99.90;;;;;;5047441;28;20028;-54
2021/12/22 00:36:17;;;;;;;31.17;20.77;;;2.00;99.90;;;;;;5040559;28;20046;-53
2021/12/22 00:38:44;;;;;;;30.42;19.80;;;2.00;99.90;;;;;;5019099;28;20465;-54
2021/12/22 00:41:10;;;;;;;31.73;19.70;;;1.70;99.90;;;;;;5039564;28;20049;-52
2021/12/22 00:43:36;;;;;;;31.67;18.80;;;1.60;99.90;;;;;;5045639;28;20491;-51
2021/12/22 00:46:02;;;;;;;29.63;19.13;;;1.60;99.90;;;;;;5042298;28;20033;-52
2021/12/22 00:48:28;;;;;;;37.63;23.50;;;1.80;99.90;;;;;;5049266;28;20057;-51
2021/12/22 00:50:54;;;;;;;41.92;24.52;;;1.90;99.90;;;;;;5042461;28;20052;-55
2021/12/22 00:53:20;;;;;;;43.45;26.33;;;2.00;99.90;;;;;;5046028;28;20029;-54
2021/12/22 00:55:47;;;;;;;33.40;20.92;;;2.40;99.90;;;;;;5025404;28;20044;-51
2021/12/22 00:58:13;;;;;;;29.88;20.52;;;2.40;99.90;;;;;;5046549;28;20029;-53
2021/12/22 01:00:40;;;;;;;33.00;20.30;;;2.40;99.90;;;;;;5037905;28;20506;-54
2021/12/22 01:03:06;;;;;;;34.05;19.85;;;2.20;99.90;;;;;;5038975;28;20029;-53
2021/12/22 01:05:32;;;;;;;35.92;22.95;;;1.90;99.90;;;;;;5045705;28;20025;-54
2021/12/22 01:07:58;;;;;;;41.70;24.55;;;2.10;99.90;;;;;;5059773;28;20049;-53
2021/12/22 01:10:27;;;;;;;33.50;21.02;;;1.90;99.90;;;;;;5040370;28;20065;-52
2021/12/22 01:12:56;;;;;;;33.20;19.25;;;2.00;99.90;;;;;;5052220;28;20025;-52
2021/12/22 01:15:23;;;;;;;31.35;21.25;;;2.20;99.90;;;;;;5050810;28;20058;-50
2021/12/22 01:17:57;;;;;;;34.33;20.63;;;2.10;99.90;;;;;;5040446;28;20037;-55
2021/12/22 01:20:30;;;;;;;33.33;20.83;;;2.10;99.90;;;;;;5043884;28;20045;-52
2021/12/22 01:23:05;;;;;;;29.02;19.02;;;2.30;99.90;;;;;;5037680;28;20112;-53
2021/12/22 01:25:41;;;;;;;30.17;19.95;;;2.50;99.90;;;;;;5045207;28;20082;-52
2021/12/22 01:28:08;;;;;;;33.88;21.17;;;2.50;99.90;;;;;;5046607;28;20037;-54
2021/12/22 01:30:36;;;;;;;36.42;23.38;;;;;;;;;;5047273;28;20068;-49
2021/12/22 01:33:03;;;;;;;31.17;19.70;;;2.70;99.90;;;;;;5041920;28;20088;-53
2021/12/22 01:35:31;;;;;;;28.50;19.00;;;2.60;99.90;;;;;;5041505;28;20028;-55
2021/12/22 01:37:58;;;;;;;33.17;19.15;;;2.70;99.90;;;;;;5049916;28;20044;-53
2021/12/22 01:40:24;;;;;;;29.08;17.73;;;2.60;99.90;;;;;;5045106;28;20079;-53
2021/12/22 01:42:55;;;;;;;31.10;20.23;;;2.50;99.90;;;;;;5047615;28;20048;-53
2021/12/22 01:52:15;;;;;;;49.78;28.77;;;2.40;99.90;;;;;;5013271;28;20099;-52
2021/12/22 01:54:50;;;;;;;40.42;25.88;;;2.10;99.90;;;;;;4932552;29;20161;-50
2021/12/22 01:57:17;;;;;;;43.53;24.95;;;2.00;99.90;;;;;;4933378;29;20036;-52
2021/12/22 01:59:46;;;;;;;37.97;24.13;;;2.20;99.90;;;;;;4876965;29;20483;-54
2021/12/22 02:02:14;;;;;;;40.05;27.45;;;2.30;99.90;;;;;;4939993;29;20042;-52
2021/12/22 02:04:41;;;;;;;42.75;27.52;;;2.30;99.90;;;;;;4903956;29;20496;-53
2021/12/22 02:07:08;;;;;;;46.65;26.02;;;2.50;99.90;;;;;;4937793;29;20039;-50
2021/12/22 02:12:13;;;;;;;46.92;26.83;;;2.60;99.90;;;;;;4935868;29;20051;-50
2021/12/22 02:14:41;;;;;;;36.95;25.88;;;2.60;99.90;;;;;;4935470;29;20040;-51
2021/12/22 02:17:09;;;;;;;38.65;25.10;;;2.70;99.90;;;;;;4933138;29;20411;-51
2021/12/22 02:19:39;;;;;;;38.03;24.85;;;2.80;99.90;;;;;;4935327;29;20131;-54
2021/12/22 02:22:10;;;;;;;37.08;23.92;;;2.70;99.90;;;;;;4937326;29;20086;-51
2021/12/22 02:24:36;;;;;;;36.05;23.42;;;2.90;99.90;;;;;;4905947;28;20035;-51
2021/12/22 02:27:11;;;;;;;34.17;23.83;;;3.00;99.90;;;;;;4969837;28;20553;-52
2021/12/22 02:29:39;;;;;;;38.33;25.35;;;3.00;99.90;;;;;;4968709;28;20081;-53
2021/12/22 02:34:46;;;;;;;38.55;25.30;;;3.00;99.90;;;;;;5025782;28;20365;-55
2021/12/22 02:37:16;;;;;;;43.13;27.48;;;3.00;99.90;;;;;;5048314;28;20074;-50
2021/12/22 02:39:56;;;;;;;43.60;27.70;;;2.90;99.90;;;;;;5052619;28;20063;-52
2021/12/22 02:42:25;;;;;;;42.40;27.65;;;2.80;99.90;;;;;;5047806;28;20068;-53
2021/12/22 02:44:51;;;;;;;42.67;29.77;;;2.80;99.90;;;;;;5042064;28;20577;-52
2021/12/22 02:47:25;;;;;;;54.03;33.65;;;2.90;99.90;;;;;;5047308;28;20107;-56
2021/12/22 02:49:51;;;;;;;57.50;35.55;;;2.70;99.90;;;;;;5046095;28;20059;-51
2021/12/22 02:52:18;;;;;;;58.83;37.30;;;2.80;99.90;;;;;;5030595;28;20041;-53
2021/12/22 02:54:52;;;;;;;59.80;37.63;;;2.80;99.90;;;;;;5042059;28;20029;-54
2021/12/22 02:57:31;;;;;;;58.85;37.22;;;2.80;99.90;;;;;;5054945;28;20350;-55
2021/12/22 03:02:39;;;;;;;64.30;41.17;;;2.90;99.90;;;;;;5046624;28;20047;-54
2021/12/22 03:05:05;;;;;;;66.82;40.97;;;2.90;99.90;;;;;;5049000;28;20531;-50
2021/12/22 03:07:32;;;;;;;71.25;43.03;;;3.00;99.90;;;;;;5012528;28;20528;-54
2021/12/22 03:10:14;;;;;;;71.30;42.55;;;3.00;99.90;;;;;;5039852;28;20032;-54
2021/12/22 03:12:41;;;;;;;65.85;41.03;;;3.10;99.90;;;;;;5046775;28;20111;-52
2021/12/22 03:15:09;;;;;;;56.83;36.33;;;2.80;99.90;;;;;;5046163;28;20384;-55
2021/12/22 03:17:36;;;;;;;58.97;36.80;;;2.80;99.90;;;;;;5050520;28;20487;-53
2021/12/22 03:20:03;;;;;;;60.50;35.05;;;2.60;99.90;;;;;;5039124;28;20037;-52
2021/12/22 03:22:29;;;;;;;53.30;34.60;;;2.40;99.90;;;;;;5014662;28;20531;-52
2021/12/22 03:24:55;;;;;;;62.58;36.40;;;2.50;99.90;;;;;;5042054;28;20037;-55
2021/12/22 03:27:23;;;;;;;56.92;35.40;;;2.50;99.90;;;;;;5040511;28;20061;-52
2021/12/22 03:29:49;;;;;;;54.63;34.90;;;2.40;99.90;;;;;;5039756;28;20627;-52
2021/12/22 03:32:15;;;;;;;55.45;34.47;;;2.60;99.90;;;;;;5047468;28;20532;-53
2021/12/22 03:34:41;;;;;;;44.78;30.13;;;2.60;99.90;;;;;;5044351;28;20064;-54
2021/12/22 03:37:09;;;;;;;46.05;30.55;;;2.60;99.90;;;;;;5043764;28;20042;-50
2021/12/22 03:39:35;;;;;;;46.20;32.38;;;2.70;99.90;;;;;;5045089;28;20100;-50
2021/12/22 03:42:01;;;;;;;42.95;30.92;;;2.90;99.90;;;;;;5049663;28;20033;-52
2021/12/22 03:44:27;;;;;;;45.63;30.15;;;3.00;99.90;;;;;;5016774;28;20033;-50
2021/12/22 03:46:53;;;;;;;54.67;34.00;;;3.10;99.90;;;;;;5042919;28;20074;-53
2021/12/22 03:49:19;;;;;;;59.95;36.92;;;3.00;99.90;;;;;;5040325;28;20129;-54
2021/12/22 03:51:45;;;;;;;49.15;33.05;;;2.80;99.90;;;;;;5047312;28;20106;-53
2021/12/22 03:54:12;;;;;;;48.90;32.15;;;2.70;99.90;;;;;;5045805;28;20099;-49
2021/12/22 03:56:38;;;;;;;47.85;31.77;;;2.70;99.90;;;;;;5053281;28;20029;-52
2021/12/22 03:59:05;;;;;;;47.20;31.05;;;2.60;99.90;;;;;;5043038;28;20045;-51
2021/12/22 04:01:31;;;;;;;43.53;28.67;;;2.70;99.90;;;;;;5044126;28;20040;-52
2021/12/22 04:04:01;;;;;;;42.80;28.25;;;2.60;99.90;;;;;;5032242;28;21324;-52
2021/12/22 04:06:27;;;;;;;42.05;28.95;;;2.60;99.90;;;;;;5043750;28;20468;-49
2021/12/22 04:08:53;;;;;;;38.55;27.00;;;2.70;99.90;;;;;;5030190;28;20045;-53
2021/12/22 04:11:19;;;;;;;46.30;28.63;;;2.90;99.90;;;;;;5049170;28;20365;-52
2021/12/22 04:13:45;;;;;;;40.67;28.90;;;2.70;99.90;;;;;;5047176;28;20155;-55
2021/12/22 04:16:11;;;;;;;44.13;28.67;;;2.80;99.90;;;;;;5051906;28;20032;-54
2021/12/22 04:18:36;;;;;;;44.67;31.73;;;2.70;99.90;;;;;;5051838;28;20495;-51
2021/12/22 04:21:02;;;;;;;44.63;29.92;;;2.60;99.90;;;;;;5029057;28;20444;-54
2021/12/22 04:23:28;;;;;;;46.03;30.50;;;2.50;99.90;;;;;;5043240;28;20041;-50
2021/12/22 04:25:54;;;;;;;45.78;29.55;;;2.70;99.90;;;;;;5037906;28;20108;-56
2021/12/22 04:28:20;;;;;;;40.85;28.27;;;2.60;99.90;;;;;;5045080;28;20067;-55
2021/12/22 04:30:49;;;;;;;43.65;30.42;;;2.70;99.90;;;;;;5043112;28;20029;-52
2021/12/22 04:33:17;;;;;;;43.15;30.77;;;2.80;99.90;;;;;;5041806;28;20483;-54
2021/12/22 04:35:43;;;;;;;61.20;36.47;;;2.90;99.90;;;;;;5050634;28;20090;-57
2021/12/22 04:38:09;;;;;;;48.30;31.30;;;2.60;99.90;;;;;;5040727;28;20029;-50
2021/12/22 04:40:35;;;;;;;43.40;28.65;;;2.30;99.90;;;;;;5043896;28;20033;-51
2021/12/22 04:43:00;;;;;;;49.33;33.67;;;1.80;99.90;;;;;;5039215;28;20107;-53
2021/12/22 04:45:26;;;;;;;47.42;33.65;;;1.70;99.90;;;;;;5041184;28;20029;-52
2021/12/22 04:47:52;;;;;;;48.30;31.73;;;1.50;99.90;;;;;;5043641;28;20079;-53
2021/12/22 04:50:22;;;;;;;46.38;32.67;;;1.50;99.90;;;;;;5024618;28;20077;-53
2021/12/22 04:55:19;;;;;;;39.80;28.13;;;2.00;99.90;;;;;;5048630;28;20041;-51
2021/12/22 04:57:45;;;;;;;44.17;30.25;;;2.20;99.90;;;;;;5038409;28;20083;-52
2021/12/22 05:00:13;;;;;;;46.45;29.27;;;2.20;99.90;;;;;;5045900;28;20473;-49
2021/12/22 05:02:40;;;;;;;45.60;29.27;;;1.90;99.90;;;;;;5038583;28;20084;-50
2021/12/22 05:05:06;;;;;;;39.47;27.77;;;1.70;99.90;;;;;;5047458;28;20509;-49
2021/12/22 05:07:32;;;;;;;44.97;29.27;;;1.30;99.90;;;;;;5040754;28;20037;-51
2021/12/22 05:09:57;;;;;;;47.00;29.85;;;1.20;99.90;;;;;;5034621;28;20034;-49
2021/12/22 05:12:23;;;;;;;37.17;26.90;;;1.20;99.90;;;;;;5038496;28;20120;-49
2021/12/22 05:14:50;;;;;;;37.58;24.67;;;1.40;99.90;;;;;;5042865;28;20036;-49
2021/12/22 05:17:21;;;;;;;39.80;26.50;;;1.00;99.90;;;;;;5038805;28;20453;-50
2021/12/22 05:19:46;;;;;;;38.17;25.58;;;0.90;99.90;;;;;;5046294;28;20139;-50
2021/12/22 05:22:13;;;;;;;33.72;23.27;;;0.80;99.90;;;;;;5044545;28;20133;-49
2021/12/22 05:24:39;;;;;;;39.30;24.48;;;0.70;99.90;;;;;;5046704;28;20029;-49
2021/12/22 05:27:11;;;;;;;36.00;23.10;;;0.60;99.90;;;;;;5042607;28;20162;-50
2021/12/22 05:29:37;;;;;;;;;;;0.60;99.90;;;;;;5039301;28;20116;-49
2021/12/22 05:32:04;;;;;;;40.17;26.17;;;0.70;99.90;;;;;;5042446;28;19908;-49
2021/12/22 05:34:30;;;;;;;39.20;25.45;;;0.70;99.90;;;;;;5045628;28;20037;-50
2021/12/22 05:36:56;;;;;;;38.67;24.30;;;0.70;99.90;;;;;;5041455;28;20035;-50
2021/12/22 05:39:22;;;;;;;38.83;24.33;;;0.70;99.90;;;;;;5046702;28;20028;-50
2021/12/22 05:41:48;;;;;;;36.78;22.95;;;0.80;99.90;;;;;;5040305;28;20071;-49
2021/12/22 05:44:14;;;;;;;42.45;26.50;;;0.70;99.90;;;;;;5057569;28;20033;-49
2021/12/22 05:46:40;;;;;;;36.42;23.98;;;0.60;99.90;;;;;;5040951;28;20036;-49
2021/12/22 05:49:06;;;;;;;40.60;26.23;;;0.60;99.90;;;;;;5044242;28;20029;-50
2021/12/22 05:51:34;;;;;;;41.25;27.98;;;0.50;99.90;;;;;;5047377;28;20083;-50
2021/12/22 05:54:00;;;;;;;54.53;34.60;;;0.50;99.90;;;;;;5044456;28;20131;-49
2021/12/22 05:56:27;;;;;;;55.55;35.90;;;0.60;99.90;;;;;;5044839;28;20120;-50
2021/12/22 05:58:52;;;;;;;48.42;32.95;;;0.80;99.90;;;;;;5038086;28;20091;-49
2021/12/22 06:01:19;;;;;;;39.83;27.33;;;0.80;99.90;;;;;;5037207;28;20484;-50
2021/12/22 06:03:45;;;;;;;40.65;27.67;;;0.90;99.90;;;;;;5047342;28;20033;-51
2021/12/22 06:06:11;;;;;;;37.15;26.45;;;1.30;99.90;;;;;;5039368;28;20026;-49
2021/12/22 06:08:37;;;;;;;54.95;33.10;;;1.60;99.90;;;;;;5043561;28;20109;-49
2021/12/22 06:11:03;;;;;;;103.95;47.85;;;2.00;99.90;;;;;;5043722;28;20059;-51
2021/12/22 06:13:29;;;;;;;104.32;45.97;;;2.30;99.90;;;;;;5045243;28;20065;-50
2021/12/22 06:15:55;;;;;;;59.10;34.53;;;2.50;99.90;;;;;;5045034;28;20484;-50
2021/12/22 06:18:21;;;;;;;44.50;30.15;;;2.60;99.90;;;;;;5049258;28;20033;-50
2021/12/22 06:20:47;;;;;;;45.88;30.63;;;2.50;99.90;;;;;;5041755;28;20053;-50
2021/12/22 06:23:13;;;;;;;49.00;30.65;;;2.50;99.90;;;;;;5028774;28;20029;-50
2021/12/22 06:25:39;;;;;;;51.42;30.67;;;2.70;99.90;;;;;;5043617;28;20033;-50
2021/12/22 06:28:06;;;;;;;125.03;55.50;;;2.90;99.90;;;;;;5040915;28;20033;-50
2021/12/22 06:30:32;;;;;;;109.95;48.08;;;3.00;99.90;;;;;;5041072;28;20043;-50
2021/12/22 06:32:59;;;;;;;65.78;34.03;;;3.10;99.90;;;;;;5038693;28;20116;-51
2021/12/22 06:35:25;;;;;;;45.33;29.10;;;3.20;99.90;;;;;;5039064;28;20049;-50
2021/12/22 06:37:52;;;;;;;50.22;27.73;;;3.30;99.90;;;;;;5035486;28;20041;-50
2021/12/22 06:40:18;;;;;;;44.75;27.55;;;3.20;99.90;;;;;;5038026;28;20103;-51
2021/12/22 06:42:44;;;;;;;55.28;30.73;;;3.30;99.90;;;;;;5031138;28;20037;-51
2021/12/22 06:45:12;;;;;;;46.67;30.42;;;3.40;99.90;;;;;;5040608;28;20046;-49
2021/12/22 06:47:38;;;;;;;42.60;28.60;;;3.50;99.90;;;;;;5031268;28;20037;-51
2021/12/22 06:50:05;;;;;;;50.70;36.08;;;3.60;99.90;;;;;;5036517;28;20564;-51
2021/12/22 06:52:31;;;;;;;56.63;37.38;;;3.70;99.90;;;;;;4992262;28;20123;-50
2021/12/22 06:54:56;;;;;;;92.32;51.15;;;3.70;99.90;;;;;;5041168;28;20069;-50
2021/12/22 06:57:23;;;;;;;49.20;31.10;;;3.70;99.90;;;;;;5041899;28;20118;-51
2021/12/22 06:59:49;;;;;;;56.38;34.13;;;3.30;99.90;;;;;;5038302;28;20500;-50
2021/12/22 07:02:15;;;;;;;68.15;41.95;;;3.20;99.90;;;;;;5034631;28;20572;-50
2021/12/22 07:04:41;;;;;;;77.85;41.67;;;3.00;99.90;;;;;;5039691;28;20423;-50
2021/12/22 07:07:07;;;;;;;207.77;95.53;;;2.90;99.90;;;;;;5047697;28;20029;-57
2021/12/22 07:09:33;;;;;;;202.25;95.47;;;3.20;99.90;;;;;;5010509;28;20136;-50
2021/12/22 07:11:59;;;;;;;103.68;53.00;;;3.10;99.90;;;;;;5039908;28;20045;-51
2021/12/22 07:14:25;;;;;;;118.32;61.78;;;3.20;99.90;;;;;;5038164;28;20112;-50
2021/12/22 07:16:51;;;;;;;69.70;42.03;;;3.30;99.90;;;;;;5007604;28;20052;-49
2021/12/22 07:19:16;;;;;;;51.10;32.78;;;3.40;99.90;;;;;;5023021;28;20041;-50
2021/12/22 07:21:44;;;;;;;60.05;36.33;;;3.30;99.90;;;;;;5052750;28;20042;-51
2021/12/22 07:24:10;;;;;;;51.47;36.30;;;3.40;99.90;;;;;;5044866;28;20484;-50
2021/12/22 07:26:37;;;;;;;53.78;36.88;;;3.50;99.90;;;;;;5024954;28;20033;-50
2021/12/22 07:29:04;;;;;;;55.83;38.72;;;3.50;99.90;;;;;;5043530;28;20112;-50
2021/12/22 07:31:30;;;;;;;63.50;42.58;;;3.60;99.90;;;;;;5046964;28;20104;-50
2021/12/22 07:34:01;;;;;;;53.38;36.92;;;3.50;99.90;;;;;;5041129;28;20098;-49
2021/12/22 07:36:27;;;;;;;51.97;33.05;;;3.50;99.90;;;;;;5049497;28;20116;-50
2021/12/22 07:39:01;;;;;;;52.45;36.42;;;3.50;99.90;;;;;;5048092;28;20160;-50
2021/12/22 07:41:27;;;;;;;58.10;38.08;;;3.50;99.90;;;;;;5046048;28;20029;-50
2021/12/22 07:43:54;;;;;;;63.45;42.55;;;3.60;99.90;;;;;;5044643;28;20060;-50
2021/12/22 07:46:20;;;;;;;62.47;39.90;;;3.70;99.90;;;;;;5046762;28;20069;-52
2021/12/22 07:48:46;;;;;;;63.60;41.58;;;3.90;99.90;;;;;;5050220;28;20025;-50
2021/12/22 07:51:12;;;;;;;63.03;41.38;;;3.90;99.90;;;;;;5047074;28;20122;-50
2021/12/22 07:53:38;;;;;;;73.18;45.35;;;3.80;99.90;;;;;;5049867;28;20431;-50
2021/12/22 07:56:04;;;;;;;98.15;58.42;;;3.80;99.90;;;;;;5051451;28;20031;-50
2021/12/22 07:58:30;;;;;;;100.38;63.38;;;3.60;99.90;;;;;;5047738;28;20052;-50
2021/12/22 08:00:56;;;;;;;99.65;63.92;;;3.70;99.90;;;;;;5027932;28;20041;-50
2021/12/22 08:03:24;;;;;;;106.82;66.03;;;3.90;99.90;;;;;;5013431;28;20373;-50
2021/12/22 08:05:50;;;;;;;112.53;69.03;;;4.00;99.90;;;;;;5046894;28;20040;-50
2021/12/22 08:08:18;;;;;;;113.15;72.50;;;4.20;99.90;;;;;;5040647;28;20179;-50
2021/12/22 08:10:44;;;;;;;96.07;62.05;;;4.20;99.90;;;;;;5046797;28;20120;-50
2021/12/22 08:13:10;;;;;;;79.35;52.83;;;3.70;99.90;;;;;;5042324;28;20486;-50
2021/12/22 08:15:36;;;;;;;74.95;50.10;;;3.30;99.90;;;;;;5031822;28;20041;-50
2021/12/22 08:18:01;;;;;;;75.07;51.03;;;3.10;99.90;;;;;;5047466;28;20044;-50
2021/12/22 08:20:27;;;;;;;79.95;52.00;;;3.40;99.90;;;;;;5013416;28;20494;-50
2021/12/22 08:22:53;;;;;;;76.78;52.22;;;3.40;99.90;;;;;;5044521;28;20045;-50
2021/12/22 08:25:20;;;;;;;69.15;47.03;;;3.60;99.90;;;;;;5034515;28;20036;-52
2021/12/22 08:27:46;;;;;;;62.80;43.28;;;3.90;99.90;;;;;;5041145;28;20036;-50
2021/12/22 08:30:12;;;;;;;57.15;38.90;;;3.90;99.90;;;;;;5048350;28;20113;-50
2021/12/22 08:32:38;;;;;;;65.63;43.80;;;3.90;99.90;;;;;;5044158;28;20120;-50
2021/12/22 08:35:08;;;;;;;65.47;45.92;;;3.80;99.90;;;;;;5043231;28;20359;-51
2021/12/22 08:40:20;;;;;;;51.78;33.70;;;3.50;99.90;;;;;;5050321;28;20075;-50
2021/12/22 08:42:46;;;;;;;46.65;32.80;;;4.00;99.90;;;;;;5046883;28;20068;-50
2021/12/22 08:45:13;;;;;;;46.55;34.15;;;4.20;99.90;;;;;;5045713;28;20461;-52
2021/12/22 08:47:39;;;;;;;46.72;31.65;;;4.50;99.90;;;;;;5020912;28;20048;-51
2021/12/22 08:50:06;;;;;;;77.38;45.75;;;4.60;99.90;;;;;;5026228;28;20041;-50
2021/12/22 08:52:33;;;;;;;51.65;34.83;;;4.70;99.90;;;;;;5041718;28;20047;-50
2021/12/22 08:54:59;;;;;;;52.90;29.58;;;4.90;99.90;;;;;;5043254;28;20036;-55
2021/12/22 08:57:24;;;;;;;38.85;28.23;;;5.00;99.90;;;;;;5046845;28;20029;-50
2021/12/22 08:59:51;;;;;;;38.80;27.25;;;5.10;99.90;;;;;;5041411;28;20443;-49
2021/12/22 09:02:17;;;;;;;36.15;25.75;;;5.10;99.90;;;;;;5041364;28;20112;-49
2021/12/22 09:04:43;;;;;;;38.80;24.90;;;5.20;99.90;;;;;;5046580;28;20124;-49
2021/12/22 09:07:08;;;;;;;34.53;24.02;;;5.30;99.90;;;;;;5058861;28;20112;-50
2021/12/22 09:09:34;;;;;;;36.78;25.92;;;5.30;99.90;;;;;;5042746;28;20091;-50
2021/12/22 09:12:01;;;;;;;46.67;32.42;;;5.30;99.90;;;;;;5042304;28;20025;-50
2021/12/22 09:14:28;;;;;;;36.20;27.10;;;5.30;99.90;;;;;;5044305;28;20069;-49
2021/12/22 09:16:54;;;;;;;45.22;30.88;;;5.40;99.90;;;;;;5064139;28;20182;-49
2021/12/22 09:19:20;;;;;;;49.50;31.58;;;5.40;99.90;;;;;;5044939;28;20464;-49
2021/12/22 09:21:46;;;;;;;54.85;33.72;;;5.50;99.90;;;;;;5042206;28;20036;-49
2021/12/22 09:24:12;;;;;;;46.65;30.05;;;5.30;99.90;;;;;;5040680;28;20492;-50
2021/12/22 09:26:38;;;;;;;39.90;26.30;;;5.10;99.90;;;;;;5052519;28;20025;-49
2021/12/22 09:29:06;;;;;;;42.50;30.73;;;5.40;99.90;;;;;;5058547;28;20041;-56
2021/12/22 09:31:31;;;;;;;38.58;26.42;;;5.50;99.90;;;;;;5044620;28;20113;-49
2021/12/22 09:33:58;;;;;;;76.05;40.53;;;5.60;99.90;;;;;;5041218;28;20527;-50
2021/12/22 09:36:24;;;;;;;45.72;30.00;;;5.30;99.90;;;;;;5040857;28;20485;-50
2021/12/22 09:38:50;;;;;;;186.98;77.30;;;5.40;99.90;;;;;;5041473;28;20117;-49
2021/12/22 09:41:16;;;;;;;61.80;42.28;;;5.40;99.90;;;;;;5041678;28;20145;-51
2021/12/22 09:43:43;;;;;;;52.88;36.65;;;5.50;99.90;;;;;;5044258;28;20037;-50
2021/12/22 09:46:13;;;;;;;47.60;33.88;;;5.70;99.90;;;;;;5052573;28;20435;-49
2021/12/22 09:53:37;;;;;;;46.28;31.67;;;5.80;99.90;;;;;;5056333;28;20035;-50
2021/12/22 09:56:04;;;;;;;37.38;27.98;;;5.80;99.90;;;;;;5042105;28;20041;-49
2021/12/22 09:58:31;;;;;;;47.28;34.53;;;6.10;99.90;;;;;;5047063;28;20029;-52
2021/12/22 10:00:58;;;;;;;75.70;43.63;;;6.30;99.90;;;;;;5047558;28;20033;-51
2021/12/22 10:03:25;;;;;;;36.40;27.98;;;6.20;99.90;;;;;;5054338;28;20040;-49
2021/12/22 10:05:52;;;;;;;54.95;36.45;;;6.60;99.90;;;;;;5046763;28;20028;-50
2021/12/22 10:08:24;;;;;;;161.27;83.95;;;6.80;99.90;;;;;;5042507;28;20068;-50
2021/12/22 10:11:08;;;;;;;51.80;32.53;;;6.60;99.90;;;;;;5047221;28;20044;-49
2021/12/22 10:13:35;;;;;;;44.75;28.00;;;6.30;99.90;;;;;;5041894;28;20373;-49
2021/12/22 10:16:11;;;;;;;44.38;30.83;;;5.90;99.90;;;;;;5047773;28;20059;-49
2021/12/22 10:18:37;;;;;;;45.80;31.58;;;5.60;99.90;;;;;;5050907;28;20064;-49
2021/12/22 10:21:15;;;;;;;71.75;43.00;;;5.70;99.90;;;;;;5054661;28;20134;-49
2021/12/22 10:23:44;;;;;;;42.03;29.88;;;6.90;99.90;;;;;;5050073;28;20037;-50
2021/12/22 10:26:16;;;;;;;43.13;31.60;;;8.00;99.90;;;;;;5043803;28;20033;-50
2021/12/22 10:28:53;;;;;;;39.43;31.73;;;9.70;99.90;;;;;;5037334;28;20069;-51
2021/12/22 10:31:26;;;;;;;40.38;30.55;;;10.50;99.90;;;;;;5057228;28;20275;-53
2021/12/22 10:33:52;;;;;;;49.63;36.00;;;10.80;99.90;;;;;;5043487;28;20044;-50
2021/12/22 10:36:21;;;;;;;31.15;27.83;;;11.00;99.90;;;;;;5042394;28;20025;-51
2021/12/22 10:39:01;;;;;;;35.53;28.58;;;12.80;98.80;;;;;;5044399;28;20022;-50
2021/12/22 10:41:31;;;;;;;29.30;26.10;;;14.20;93.20;;;;;;5014241;28;20056;-50
2021/12/22 10:43:58;;;;;;;45.45;34.63;;;15.20;91.50;;;;;;5041980;28;20075;-50
2021/12/22 10:46:33;;;;;;;46.47;31.20;;;15.70;87.30;;;;;;5052113;28;20036;-51
2021/12/22 10:49:22;;;;;;;35.08;28.45;;;15.70;84.50;;;;;;5043798;28;20393;-51
2021/12/22 10:52:01;;;;;;;72.97;42.92;;;15.80;82.80;;;;;;5045038;28;20029;-50
2021/12/22 10:54:38;;;;;;;88.35;51.50;;;16.00;82.10;;;;;;5047215;28;20029;-50
2021/12/22 10:57:10;;;;;;;28.02;22.83;;;16.10;79.50;;;;;;5060753;28;20037;-50
2021/12/22 10:59:49;;;;;;;23.90;21.52;;;15.80;80.00;;;;;;5042765;28;20068;-51
2021/12/22 11:02:26;;;;;;;28.63;20.15;;;16.00;78.90;;;;;;5051663;28;20649;-50
2021/12/22 11:04:52;;;;;;;111.72;30.27;;;16.40;77.10;;;;;;5042223;28;20069;-50
2021/12/22 11:07:26;;;;;;;27.98;22.70;;;16.90;75.50;;;;;;5044945;28;20040;-51
2021/12/22 11:09:52;;;;;;;34.15;22.20;;;15.40;75.10;;;;;;5041884;28;20056;-51
2021/12/22 11:12:36;;;;;;;29.40;19.83;;;14.70;77.50;;;;;;5041323;28;20037;-51
2021/12/22 11:15:03;;;;;;;26.33;21.70;;;15.20;77.20;;;;;;5048355;28;20033;-50
2021/12/22 11:17:29;;;;;;;26.75;20.30;;;15.60;74.90;;;;;;5043892;28;20047;-51
2021/12/22 11:20:06;;;;;;;34.40;22.92;;;14.40;76.60;;;;;;5041349;28;20404;-51
2021/12/22 11:25:17;;;;;;;29.88;22.92;;;14.50;79.90;;;;;;5043584;28;20084;-51
2021/12/22 11:27:43;;;;;;;20.75;17.20;;;14.50;75.90;;;;;;5026648;28;20493;-51
2021/12/22 11:30:10;;;;;;;18.02;14.27;;;14.00;74.70;;;;;;5042967;28;20503;-51
2021/12/22 11:32:37;;;;;;;22.52;18.40;;;14.50;71.60;;;;;;5048924;28;20075;-51
2021/12/22 11:35:06;;;;;;;18.63;15.57;;;14.60;74.10;;;;;;5044565;28;20041;-51
2021/12/22 11:37:34;;;;;;;21.85;18.58;;;14.20;72.90;;;;;;5043379;28;20045;-51
2021/12/22 11:40:00;;;;;;;24.95;18.52;;;14.50;74.40;;;;;;5050038;28;20037;-51
2021/12/22 11:42:37;;;;;;;22.95;20.52;;;15.20;74.50;;;;;;5045002;28;20037;-51
2021/12/22 11:45:12;;;;;;;43.95;23.70;;;;;;;;;;5047731;28;20033;-51
2021/12/22 11:47:43;;;;;;;29.35;23.58;;;16.30;72.30;;;;;;5050765;28;20376;-51
2021/12/22 11:50:23;;;;;;;28.15;23.70;;;;;;;;;;5043644;28;20029;-51
2021/12/22 11:52:59;;;;;;;31.00;23.92;;;;;;;;;;5044525;28;20087;-51
2021/12/22 11:55:45;;;;;;;26.42;22.27;;;16.40;98.00;;;;;;5029614;28;20095;-51
2021/12/22 11:58:11;;;;;;;27.08;23.17;;;15.00;90.50;;;;;;5043583;28;20048;-50
2021/12/22 12:00:38;;;;;;;31.73;24.55;;;15.10;74.10;;;;;;5045809;28;20041;-50
2021/12/22 12:03:24;;;;;;;31.48;23.70;;;14.40;74.60;;;;;;5023137;28;20047;-51
2021/12/22 12:06:11;;;;;;;41.85;29.73;;;14.50;98.40;;;;;;5041811;28;20033;-50
2021/12/22 12:08:47;;;;;;;57.35;38.72;;;14.90;75.40;;;;;;5041455;28;20061;-51
2021/12/22 12:11:17;;;;;;;34.35;22.38;;;13.00;90.40;;;;;;5039983;28;20084;-51
2021/12/22 12:22:20;;;;;;;24.02;16.00;;;13.20;97.80;;;;;;5042383;28;20052;-53
2021/12/22 12:24:58;;;;;;;;;;;12.60;76.50;;;;;;5026973;28;20049;-52
2021/12/22 12:27:33;;;;;;;16.70;10.95;;;13.00;75.60;;;;;;5034839;28;19925;-51
2021/12/22 12:30:25;;;;;;;14.98;12.05;;;12.20;73.70;;;;;;5037058;28;20128;-52
2021/12/22 12:32:52;;;;;;;16.38;11.35;;;11.20;75.20;;;;;;5049819;28;20064;-51
2021/12/22 12:35:22;;;;;;;19.33;11.65;;;;;;;;;;5050762;28;20473;-51
2021/12/22 12:38:07;;;;;;;20.88;14.00;;;11.60;75.50;;;;;;5048274;28;21012;-51
2021/12/22 12:40:54;;;;;;;52.13;16.65;;;11.80;76.10;;;;;;5047053;28;20029;-50
2021/12/22 12:48:51;;;;;;;30.85;16.05;;;;;;;;;;5039508;28;20150;-51
2021/12/22 12:51:31;;;;;;;15.77;9.52;;;10.30;75.00;;;;;;5042923;28;20038;-51
2021/12/22 12:54:01;;;;;;;26.15;14.60;;;9.80;76.80;;;;;;5049497;28;20029;-50
2021/12/22 12:57:22;;;;;;;17.42;10.98;;;9.80;77.50;;;;;;5039550;28;20365;-50
2021/12/22 12:59:50;;;;;;;50.90;23.05;;;9.50;78.20;;;;;;4933606;29;20099;-50
2021/12/22 13:02:22;;;;;;;51.28;22.50;;;9.90;77.70;;;;;;4933196;29;20488;-51
2021/12/22 13:04:53;;;;;;;;;;;9.20;79.40;;;;;;4918149;29;20405;-50
2021/12/22 13:07:21;;;;;;;20.55;12.65;;;9.70;79.70;;;;;;4933389;29;19954;-50
2021/12/22 13:10:01;;;;;;;26.08;14.02;;;8.90;79.40;;;;;;4933136;29;20106;-50
2021/12/22 13:12:46;;;;;;;17.85;12.60;;;9.70;79.40;;;;;;4932323;29;20042;-51
2021/12/22 13:18:10;;;;;;;50.45;25.38;;;9.90;78.90;;;;;;4927535;29;20078;-50
2021/12/22 13:20:38;;;;;;;71.13;31.92;;;9.80;77.90;;;;;;4930941;29;20404;-51
2021/12/22 13:23:06;;;;;;;19.55;12.10;;;10.30;76.90;;;;;;4911066;29;20185;-50
2021/12/22 13:25:36;;;;;;;39.33;20.80;;;9.80;77.00;;;;;;4869424;29;20055;-51
2021/12/22 13:28:29;;;;;;;20.77;14.57;;;10.10;78.40;;;;;;4869333;29;20037;-53
2021/12/22 13:31:04;;;;;;;20.17;14.35;;;10.20;78.60;;;;;;4853646;29;20430;-52